KPZQ METAR Reports


Rogers City, Presque Isle County Airport, MI, United States (KPZQ) 45-24-25N 083-48-46W
Nov 22, 2017 - 04:36 PM EST / 2017.11.22 2136 UTC
Wind: from the WSW (250 degrees) at 5 MPH (4 KT):0
Visibility: 10 mile(s):0
Sky conditions: overcast
Temperature: 31.6 F (-0.2 C)
Windchill: 26 F (-3 C):1
Dew Point: 19.8 F (-6.8 C)
Relative Humidity: 61%
Pressure (altimeter): 30.2 in. Hg (1022 hPa)
ob: KPZQ 222136Z AUTO 25004KT 10SM OVC034 00/M07 A3020 RMK AO2 T10021068
cycle: 21

 

Rogers City METAR Meteogram

Nearby METAR Reports

KPZQ - Rogers City, Michigan, USA
Distance from station: SSW 1mi, 2km
Updated: Wed, 22-Nov-2017 4:36pm EST
Overcast
Overcast
 Wind from WSW
Wind: WSW 5 mph , 7 km/h
Temperature: 32°F , 0°C
Wind Chill: 27°F , -3°C
Dew Point: 19°F , -7°C
Humidity: 60%
Barometer: 30.20 inHg , 1022.7 hPa
Clouds: Overcast
Visibility: 10 miles , 16 km
Cloud details: Overcast 3400 ft
2017/11/22 21:36 KPZQ 222136Z AUTO 25004KT 10SM OVC034 00/M07 A3020 RMK AO2 T10021068
KAPN - Alpena, Michigan, USA
Distance from station: SSE 27mi, 43km
Updated: Wed, 22-Nov-2017 3:54pm EST
NOT Current
Overcast
Overcast
 Wind from WNW
Wind: WNW 5 mph , 7 km/h
Temperature: 34°F , 1°C
Wind Chill: 29°F , -2°C
Dew Point: 18°F , -8°C
Humidity: 51%
Barometer: 30.21 inHg , 1023 hPa
Clouds: Overcast
Visibility: 10 miles , 16 km
Cloud details: Overcast 4600 ft
2017/11/22 20:54 KAPN 222054Z AUTO 30004KT 10SM OVC046 01/M08 A3021 RMK AO2 SLP240 T00061078 55001
 
KSLH - Cheboygan, Michigan, USA
Distance from station: WNW 38mi, 61km
Updated: Wed, 22-Nov-2017 4:34pm EST
Overcast
Overcast
 Wind from SW
Wind: SW 3 mph , 6 km/h
Temperature: 32°F , 0°C
Dew Point: 21°F , -6°C
Humidity: 64%
Barometer: 30.17 inHg , 1021.7 hPa
Clouds: Overcast
Visibility: 10 miles , 16 km
Cloud details: Overcast 3100 ft
2017/11/22 21:34 KSLH 222134Z AUTO 22003KT 10SM OVC031 00/M06 A3017 RMK AO2 T10061058
KDRM - Drummond Is, Michigan, USA
Distance from station: N 40mi, 65km
Updated: Wed, 22-Nov-2017 4:34pm EST
Partly cloudy
Partly cloudy
 Wind from calm
Wind: Calm
Temperature: 32°F , 0°C
Dew Point: 18°F , -8°C
Humidity: 55%
Barometer: 30.17 inHg , 1021.7 hPa
Clouds: Partly cloudy
Visibility: 10 miles , 16 km
Cloud details: Partly cloudy 3900 ft
2017/11/22 21:34 KDRM 222134Z AUTO 00000KT 10SM SCT039 00/M08 A3017 RMK AO2 T10021083
 
KPLN - Pellston, Michigan, USA
Distance from station: WNW 49mi, 79km
Updated: Wed, 22-Nov-2017 3:54pm EST
NOT Current
Overcast
Overcast
 Wind from SSW
Wind: SSW 3 mph , 6 km/h
Temperature: 30°F , -1°C
Dew Point: 21°F , -6°C
Humidity: 69%
Barometer: 30.19 inHg , 1022.4 hPa
Clouds: Overcast
Visibility: 10 miles , 16 km
Cloud details: Overcast 2700 ft
2017/11/22 20:54 KPLN 222054Z AUTO 21003KT 10SM OVC027 M01/M06 A3019 RMK AO2 SLP234 T10061056 58009
KMCD - Mackinac Island, Michigan, USA
Distance from station: NW 50mi, 80km
Updated: Wed, 22-Nov-2017 4:34pm EST
Overcast
Overcast
 Wind from W
Wind: W 3 mph , 6 km/h
Temperature: 32°F , 0°C
Dew Point: 21°F , -6°C
Humidity: 64%
Barometer: 30.17 inHg , 1021.7 hPa
Clouds: Overcast
Visibility: 10 miles , 16 km
Cloud details: Overcast 3000 ft
2017/11/22 21:34 KMCD 222134Z AUTO 28003KT 10SM OVC030 00/M06 A3017 RMK AO2 T10051058